Time;durP1;ratioP1;P1;durP2;ratioP2;P2;SDS_P1;SDS_P2;PMS_P1;PMS_P2;Temp;Humidity;BMP_temperature;BMP_pressure;BME280_temperature;BME280_humidity;BME280_pressure;Samples;Min_cycle;Max_cycle;Signal;HPM_P1;HPM_P2
2022/06/13 00:01:20;;;;;;;9.75;4.90;;;;;;;12.01;96.26;102033.75;4950304;29;20034;-71
2022/06/13 00:03:46;;;;;;;10.23;4.30;;;;;;;12.01;96.66;102031.16;4950299;29;20595;-70
2022/06/13 00:06:12;;;;;;;11.35;4.55;;;;;;;11.99;97.92;102022.41;4949911;29;20511;-70
2022/06/13 00:08:38;;;;;;;7.10;3.78;;;;;;;11.94;97.27;102021.31;4950297;29;20038;-70
2022/06/13 00:11:09;;;;;;;7.35;3.55;;;;;;;11.94;97.84;102026.50;4949897;29;20404;-70
2022/06/13 00:13:35;;;;;;;11.77;3.95;;;;;;;11.90;98.52;102019.38;4950110;29;20110;-70
2022/06/13 00:16:01;;;;;;;9.00;4.07;;;;;;;11.86;98.25;102022.66;4949537;29;20138;-70
2022/06/13 00:18:26;;;;;;;6.70;3.80;;;;;;;11.83;97.97;102013.03;4950287;29;20109;-70
2022/06/13 00:20:53;;;;;;;8.13;4.20;;;;;;;11.83;98.00;102014.72;4949935;29;20087;-71
2022/06/13 00:23:18;;;;;;;8.55;4.22;;;;;;;11.82;98.05;102011.22;4949815;29;20111;-70
2022/06/13 00:25:44;;;;;;;8.52;3.58;;;;;;;11.79;98.03;102007.59;4949286;28;20114;-71
2022/06/13 00:28:09;;;;;;;8.57;4.05;;;;;;;11.73;98.13;102006.50;4953282;29;20435;-71
2022/06/13 00:30:34;;;;;;;8.32;4.20;;;;;;;11.65;99.30;102013.06;4953896;29;20027;-71
2022/06/13 00:33:00;;;;;;;6.05;4.25;;;;;;;11.62;99.66;102016.41;4953703;29;20447;-71
2022/06/13 00:35:25;;;;;;;7.68;4.10;;;;;;;11.59;99.58;102010.16;4953512;29;20117;-71
2022/06/13 00:37:50;;;;;;;10.05;5.03;;;;;;;11.60;99.12;102010.25;4953315;29;20078;-72
2022/06/13 00:40:15;;;;;;;8.90;4.53;;;;;;;11.63;99.30;102009.50;4953832;29;20480;-72
2022/06/13 00:42:42;;;;;;;9.25;4.07;;;;;;;11.62;99.10;102002.53;4953451;29;20035;-70
2022/06/13 00:45:16;;;;;;;8.48;4.80;;;;;;;11.62;100.00;102003.41;4953750;29;20027;-71
2022/06/13 00:47:45;;;;;;;9.30;4.00;;;;;;;11.64;100.00;102000.88;4953495;29;20034;-71
2022/06/13 00:50:18;;;;;;;11.75;4.97;;;;;;;11.63;100.00;101993.94;4953223;29;20392;-70
2022/06/13 00:53:08;;;;;;;7.25;3.90;;;;;;;11.65;100.00;101992.28;4953158;29;20027;-70
2022/06/13 00:55:44;;;;;;;9.88;4.75;;;;;;;11.67;100.00;101988.06;4953570;29;20039;-71
2022/06/13 00:58:12;;;;;;;8.93;4.63;;;;;;;11.70;100.00;101987.31;4953437;29;20027;-71
2022/06/13 01:00:38;;;;;;;8.30;5.07;;;;;;;11.76;100.00;101996.25;4953244;29;20034;-71
2022/06/13 01:03:04;;;;;;;10.85;4.72;;;;;;;11.81;100.00;101993.88;4952528;29;20031;-70
2022/06/13 01:05:34;;;;;;;10.43;5.60;;;;;;;11.85;100.00;102002.72;4953493;29;20526;-71
2022/06/13 01:08:02;;;;;;;10.20;5.50;;;;;;;11.88;100.00;101995.03;4953137;29;20034;-70
2022/06/13 01:13:12;;;;;;;10.50;5.10;;;;;;;11.92;100.00;101991.78;4953338;29;20115;-70
2022/06/13 01:15:54;;;;;;;9.10;5.80;;;;;;;11.91;100.00;101984.78;4953126;29;20036;-71
2022/06/13 01:18:37;;;;;;;11.57;5.75;;;;;;;11.94;100.00;101984.94;4952751;29;20056;-70
2022/06/13 01:21:31;;;;;;;11.57;5.22;;;;;;;11.96;100.00;101988.47;4952570;29;20049;-71
2022/06/13 01:24:11;;;;;;;10.25;5.72;;;;;;;11.98;100.00;101989.44;4953155;29;20385;-71
2022/06/13 01:27:09;;;;;;;17.23;6.30;;;;;;;12.01;100.00;101981.81;4952781;29;20066;-71
2022/06/13 01:29:58;;;;;;;10.57;6.43;;;;;;;12.06;100.00;101988.88;4952920;29;20031;-71
2022/06/13 01:32:30;;;;;;;7.93;5.18;;;;;;;12.06;100.00;101986.28;4952085;29;20126;-70
2022/06/13 01:35:16;;;;;;;12.27;6.07;;;;;;;12.05;100.00;101992.31;4952410;29;20114;-70
2022/06/13 01:38:06;;;;;;;14.15;5.57;;;;;;;12.08;100.00;101982.06;4951823;28;20391;-71
2022/06/13 01:40:52;;;;;;;12.00;7.15;;;;;;;12.07;100.00;101975.09;4952310;29;20023;-71
2022/06/13 01:43:34;;;;;;;10.07;5.70;;;;;;;12.11;100.00;101971.81;4952263;29;20598;-71
2022/06/13 01:46:12;;;;;;;14.93;6.32;;;;;;;12.16;100.00;101969.44;4952530;29;20050;-70
2022/06/13 01:48:56;;;;;;;9.68;5.75;;;;;;;12.19;100.00;101970.47;4952816;29;20035;-70
2022/06/13 01:51:35;;;;;;;14.40;5.88;;;;;;;12.23;100.00;101964.56;4952337;29;20118;-70
2022/06/13 01:54:20;;;;;;;10.32;5.55;;;;;;;12.27;100.00;101962.97;4951822;29;20559;-70
2022/06/13 01:56:58;;;;;;;11.73;5.72;;;;;;;12.29;100.00;101960.44;4952327;29;20415;-70
2022/06/13 01:59:43;;;;;;;10.52;5.45;;;;;;;12.35;100.00;101971.13;4951830;29;20395;-70
2022/06/13 02:02:34;;;;;;;14.25;6.15;;;;;;;12.41;100.00;101971.34;4951956;29;20126;-70
2022/06/13 02:05:03;;;;;;;;;;;;;;;12.44;100.00;101971.53;4949672;28;20043;-70
2022/06/13 02:07:39;;;;;;;8.70;5.03;;;;;;;12.50;100.00;101976.09;4952147;29;19995;-70
2022/06/13 02:10:10;;;;;;;11.38;5.78;;;;;;;12.57;100.00;101966.84;4951726;29;20487;-71
2022/06/13 02:12:36;;;;;;;9.43;6.03;;;;;;;12.60;100.00;101975.66;4951650;29;20026;-70
2022/06/13 02:15:21;;;;;;;9.35;6.00;;;;;;;12.64;100.00;101983.56;4951668;29;20116;-71
2022/06/13 02:17:54;;;;;;;11.93;5.72;;;;;;;12.65;100.00;101978.44;4952211;29;20031;-71
2022/06/13 02:20:25;;;;;;;9.70;5.38;;;;;;;12.68;100.00;101975.94;4951759;29;20113;-70
2022/06/13 02:23:06;;;;;;;12.27;6.93;;;;;;;12.72;100.00;101980.47;4951863;29;20183;-71
2022/06/13 02:25:35;;;;;;;;;;;;;;;12.75;100.00;101984.91;4952394;29;20613;-72
2022/06/13 02:28:07;;;;;;;9.57;6.32;;;;;;;12.80;100.00;101986.00;4951343;29;20521;-70
2022/06/13 02:30:39;;;;;;;14.45;6.18;;;;;;;12.83;100.00;101980.00;4951899;29;20034;-71
2022/06/13 02:33:20;;;;;;;10.10;6.00;;;;;;;12.86;100.00;101974.97;4951471;29;20034;-70
2022/06/13 02:35:49;;;;;;;10.23;5.80;;;;;;;12.87;100.00;101968.00;4951185;29;20035;-70
2022/06/13 02:38:24;;;;;;;11.05;5.78;;;;;;;12.88;100.00;101967.22;4951858;29;20023;-70
2022/06/13 02:40:55;;;;;;;10.05;5.90;;;;;;;12.89;100.00;101972.47;4951603;29;20483;-70
2022/06/13 02:43:37;;;;;;;13.60;6.40;;;;;;;12.88;100.00;101967.22;4951139;29;20035;-70
2022/06/13 02:46:12;;;;;;;12.43;6.50;;;;;;;12.88;100.00;101962.88;4949868;28;20035;-70
2022/06/13 02:48:55;;;;;;;11.43;6.03;;;;;;;12.91;100.00;101965.63;4951075;28;20459;-70
2022/06/13 02:51:32;;;;;;;11.65;5.95;;;;;;;12.92;100.00;101962.19;4950891;29;20487;-70
2022/06/13 02:54:27;;;;;;;12.70;6.95;;;;;;;12.96;100.00;101971.00;4951299;29;20043;-70
2022/06/13 03:00:11;;;;;;;13.93;6.80;;;;;;;13.01;100.00;101965.97;4951162;29;20063;-71
2022/06/13 03:02:47;;;;;;;13.68;7.22;;;;;;;13.03;100.00;101956.50;4950460;29;20074;-70
2022/06/13 03:05:31;;;;;;;17.38;7.35;;;;;;;13.04;100.00;101958.31;4951142;29;20114;-71
2022/06/13 03:08:04;;;;;;;12.85;6.65;;;;;;;13.05;100.00;101957.47;4951114;29;20396;-72
2022/06/13 03:10:50;;;;;;;13.25;7.20;;;;;;;13.05;100.00;101962.66;4950170;29;20031;-71
2022/06/13 03:13:30;;;;;;;15.90;8.25;;;;;;;13.03;100.00;101961.72;4949034;29;20031;-70
2022/06/13 03:16:02;;;;;;;14.23;7.22;;;;;;;13.02;100.00;101965.16;4949276;29;20038;-70
2022/06/13 03:18:34;;;;;;;15.20;7.80;;;;;;;13.01;100.00;101973.78;4948594;29;20038;-70
2022/06/13 03:21:06;;;;;;;15.02;8.10;;;;;;;12.99;100.00;101967.66;4931647;29;20592;-70
2022/06/13 03:24:09;;;;;;;13.57;8.23;;;;;;;13.00;100.00;101974.59;4949002;28;20035;-71
2022/06/13 03:26:40;;;;;;;14.10;7.57;;;;;;;12.99;100.00;101967.66;4945070;29;20046;-70
2022/06/13 03:29:16;;;;;;;14.98;8.05;;;;;;;13.00;100.00;101977.22;4948611;29;20035;-71
2022/06/13 03:31:48;;;;;;;14.25;7.57;;;;;;;12.99;100.00;101972.84;4948634;29;20034;-70
2022/06/13 03:34:37;;;;;;;12.00;8.02;;;;;;;12.97;100.00;101968.44;4949730;29;20094;-70
2022/06/13 03:37:09;;;;;;;13.50;7.45;;;;;;;12.96;100.00;101968.41;4950283;29;20488;-70
2022/06/13 03:39:53;;;;;;;17.13;8.23;;;;;;;12.93;100.00;101976.94;4950683;29;20444;-70
2022/06/13 03:42:51;;;;;;;14.05;7.80;;;;;;;12.93;100.00;101970.88;4950594;29;20035;-71
2022/06/13 03:45:39;;;;;;;17.00;7.80;;;;;;;12.92;100.00;101985.59;4943310;29;20071;-70
2022/06/13 03:48:12;;;;;;;17.60;8.57;;;;;;;12.91;100.00;101983.84;4950743;29;20030;-70
2022/06/13 03:50:54;;;;;;;10.95;7.15;;;;;;;12.89;100.00;101977.69;4950238;29;20126;-71
2022/06/13 03:53:25;;;;;;;14.25;8.25;;;;;;;12.88;100.00;101988.03;4950217;29;20454;-70
2022/06/13 03:55:51;;;;;;;13.88;8.30;;;;;;;12.85;100.00;101983.56;4950468;29;20131;-70
2022/06/13 03:58:27;;;;;;;16.77;8.43;;;;;;;12.79;100.00;101993.72;4950073;28;20143;-70
2022/06/13 04:01:02;;;;;;;14.90;8.77;;;;;;;12.76;100.00;101993.59;4950481;29;20026;-70
2022/06/13 04:03:29;;;;;;;15.23;7.95;;;;;;;12.69;100.00;101992.44;4950645;29;20474;-71
2022/06/13 04:05:58;;;;;;;15.52;8.68;;;;;;;12.67;100.00;102000.19;4950558;29;20020;-70
2022/06/13 04:08:25;;;;;;;11.65;7.72;;;;;;;12.65;100.00;101994.03;4949494;29;20094;-70
2022/06/13 04:11:16;;;;;;;16.77;8.05;;;;;;;12.63;100.00;101987.88;4950304;29;20031;-70
2022/06/13 04:14:15;;;;;;;12.75;8.57;;;;;;;12.68;100.00;101998.50;4949455;29;20043;-71
2022/06/13 04:16:58;;;;;;;18.00;9.27;;;;;;;12.67;100.00;101997.59;4949383;29;20158;-69
2022/06/13 04:20:02;;;;;;;17.35;8.73;;;;;;;12.69;100.00;101997.66;4949974;29;20062;-70
2022/06/13 04:22:46;;;;;;;14.50;8.57;;;;;;;12.68;100.00;101999.34;4949680;29;20047;-71
2022/06/13 04:25:26;;;;;;;14.73;8.73;;;;;;;12.66;100.00;102003.63;4950309;29;20113;-71
2022/06/13 04:28:08;;;;;;;16.23;8.90;;;;;;;12.65;100.00;102006.13;4949904;29;20058;-71
2022/06/13 04:30:36;;;;;;;13.50;8.90;;;;;;;12.62;100.00;102004.31;4949670;29;20484;-71
2022/06/13 04:33:12;;;;;;;14.32;8.90;;;;;;;12.59;100.00;102009.38;4949346;29;20031;-70
2022/06/13 04:35:38;;;;;;;17.98;10.02;;;;;;;12.57;100.00;102013.63;4949961;29;20069;-71
2022/06/13 04:38:08;;;;;;;15.40;9.40;;;;;;;12.57;100.00;102016.22;4949739;29;20031;-70
2022/06/13 04:40:38;;;;;;;16.63;9.38;;;;;;;12.57;100.00;102011.03;4949894;29;20054;-71
2022/06/13 04:43:08;;;;;;;17.42;9.32;;;;;;;12.55;100.00;102016.16;4949462;29;20032;-71
2022/06/13 04:45:50;;;;;;;16.77;10.02;;;;;;;12.58;100.00;102021.50;4949819;29;20042;-71
2022/06/13 04:48:17;;;;;;;18.20;9.82;;;;;;;12.63;100.00;102019.06;4950545;29;20027;-72
2022/06/13 04:50:48;;;;;;;16.10;10.18;;;;;;;12.65;100.00;102022.63;4949897;29;20472;-71
2022/06/13 04:53:22;;;;;;;20.67;10.52;;;;;;;12.66;100.00;102019.22;4949795;29;20396;-72
2022/06/13 04:55:50;;;;;;;17.27;10.00;;;;;;;12.69;100.00;102019.34;4949473;29;20069;-71
2022/06/13 04:58:21;;;;;;;16.15;10.38;;;;;;;12.77;100.00;102018.78;4950174;29;20027;-72
2022/06/13 05:00:52;;;;;;;15.60;10.50;;;;;;;12.84;100.00;102013.88;4949639;29;20046;-71
2022/06/13 05:03:25;;;;;;;18.42;11.20;;;;;;;12.93;100.00;102023.78;4949600;29;20027;-71
2022/06/13 05:05:54;;;;;;;17.35;9.63;;;;;;;13.01;100.00;102025.81;4949685;29;20102;-71
2022/06/13 05:08:24;;;;;;;17.52;10.88;;;;;;;13.05;100.00;102027.72;4949448;29;20069;-71
2022/06/13 05:10:53;;;;;;;15.63;10.93;;;;;;;13.11;100.00;102038.41;4949947;29;20098;-71
2022/06/13 05:13:19;;;;;;;20.58;10.73;;;;;;;13.17;100.00;102037.72;4951700;28;20024;-72
2022/06/13 05:15:53;;;;;;;22.73;11.07;;;;;;;13.24;100.00;102033.69;4952651;29;20042;-71
2022/06/13 05:18:34;;;;;;;20.30;11.13;;;;;;;13.31;100.00;102035.69;4953064;29;20038;-71
2022/06/13 05:21:22;;;;;;;;;;;;;;;13.37;100.00;102046.34;4953136;29;20566;-70
2022/06/13 05:24:01;;;;;;;20.45;11.35;;;;;;;13.45;100.00;102037.09;4952835;29;19941;-71
2022/06/13 05:26:29;;;;;;;19.30;11.13;;;;;;;13.51;100.00;102046.88;4952863;29;20046;-71
2022/06/13 05:28:57;;;;;;;25.08;11.23;;;;;;;13.59;100.00;102048.94;4952667;29;20592;-72
2022/06/13 05:31:23;;;;;;;18.17;10.93;;;;;;;13.66;100.00;102049.25;4951956;29;20035;-71
2022/06/13 05:33:50;;;;;;;18.50;10.73;;;;;;;13.73;100.00;102059.88;4952774;29;20039;-71
2022/06/13 05:36:20;;;;;;;17.50;11.35;;;;;;;13.77;100.00;102056.56;4952738;29;20396;-72
2022/06/13 05:38:48;;;;;;;17.73;10.65;;;;;;;13.84;100.00;102057.69;4952864;29;20075;-71
2022/06/13 05:41:14;;;;;;;19.05;11.38;;;;;;;13.90;100.00;102058.81;4951884;29;20031;-71
2022/06/13 05:43:39;;;;;;;16.77;10.45;;;;;;;13.95;100.00;102056.38;4952404;29;20690;-71
2022/06/13 05:46:07;;;;;;;17.35;10.23;;;;;;;14.04;100.00;102066.25;4952285;29;20492;-70
2022/06/13 05:48:33;;;;;;;18.52;10.73;;;;;;;14.12;100.00;102059.59;4952459;29;20031;-71
2022/06/13 05:50:58;;;;;;;18.35;10.43;;;;;;;14.20;100.00;102067.72;4951911;29;20117;-71
2022/06/13 05:53:25;;;;;;;21.67;10.23;;;;;;;14.29;100.00;102069.75;4951990;29;20102;-71
2022/06/13 05:55:55;;;;;;;17.00;10.07;;;;;;;14.39;100.00;102073.59;4952367;29;20031;-71
2022/06/13 05:58:21;;;;;;;22.75;10.77;;;;;;;14.49;100.00;102074.81;4952463;29;20636;-72
2022/06/13 06:00:49;;;;;;;17.75;10.23;;;;;;;14.57;100.00;102077.69;4951988;29;20027;-71
2022/06/13 06:03:15;;;;;;;18.45;10.43;;;;;;;14.62;100.00;102082.25;4952372;29;20031;-71
2022/06/13 06:05:40;;;;;;;18.58;9.80;;;;;;;14.68;100.00;102091.13;4951983;29;20754;-71
2022/06/13 06:08:12;;;;;;;17.65;9.98;;;;;;;14.70;100.00;102084.22;4952380;29;20073;-71
2022/06/13 06:10:38;;;;;;;19.17;9.45;;;;;;;14.74;100.00;102081.78;4952208;29;20042;-71
2022/06/13 06:13:03;;;;;;;18.10;10.43;;;;;;;14.78;100.00;102088.00;4951491;29;20027;-71
2022/06/13 06:15:29;;;;;;;14.38;9.15;;;;;;;14.86;100.00;102096.09;4952079;29;20031;-72
2022/06/13 06:17:54;;;;;;;19.45;10.13;;;;;;;14.95;100.00;102090.34;4951896;29;20035;-71
2022/06/13 06:20:22;;;;;;;18.42;9.13;;;;;;;15.06;100.00;102104.59;4951683;29;20492;-70
2022/06/13 06:22:47;;;;;;;17.10;8.85;;;;;;;15.11;99.15;102105.66;4951581;29;20135;-71
2022/06/13 06:25:13;;;;;;;16.70;9.52;;;;;;;15.17;99.24;102107.56;4952048;28;20242;-71
2022/06/13 06:27:39;;;;;;;15.60;8.50;;;;;;;15.20;96.62;102107.66;4951932;29;20055;-71
2022/06/13 06:30:07;;;;;;;16.77;8.25;;;;;;;15.36;97.87;102105.59;4951587;29;20058;-71
2022/06/13 06:32:32;;;;;;;12.52;6.93;;;;;;;15.64;98.29;102113.38;4951859;29;20411;-71
2022/06/13 06:34:57;;;;;;;15.05;6.45;;;;;;;15.96;95.32;102108.25;4951289;29;20106;-71
2022/06/13 06:37:23;;;;;;;12.25;5.53;;;;;;;16.22;92.03;102110.78;4951539;29;20057;-71
2022/06/13 06:39:48;;;;;;;12.57;6.35;;;;;;;16.35;90.21;102113.75;4951875;29;20032;-71
2022/06/13 06:42:13;;;;;;;13.18;5.13;;;;;;;16.42;88.68;102116.56;4951768;29;20042;-71
2022/06/13 06:44:39;;;;;;;11.43;4.50;;;;;;;16.42;86.49;102115.72;4951020;29;20382;-70
2022/06/13 06:47:06;;;;;;;9.77;3.65;;;;;;;16.32;84.88;102123.28;4951230;29;20019;-72
2022/06/13 06:49:37;;;;;;;10.25;4.20;;;;;;;16.24;84.23;102127.44;4951508;29;20102;-72
2022/06/13 06:52:04;;;;;;;9.13;3.60;;;;;;;16.24;81.86;102126.53;4951114;29;20043;-71
2022/06/13 06:59:58;;;;;;;8.60;2.70;;;;;;;16.95;81.13;102130.19;4951473;29;20189;-71
2022/06/13 07:02:27;;;;;;;10.13;2.85;;;;;;;17.19;76.34;102131.69;4950579;29;20038;-71
2022/06/13 07:04:55;;;;;;;7.55;2.80;;;;;;;17.23;72.62;102130.03;4951070;29;20114;-72
2022/06/13 07:07:21;;;;;;;4.75;1.90;;;;;;;17.30;73.47;102123.22;4950734;29;20436;-71
2022/06/13 07:09:47;;;;;;;6.70;2.42;;;;;;;17.31;72.94;102130.22;4951058;29;20027;-71
2022/06/13 07:12:13;;;;;;;5.63;2.00;;;;;;;17.30;73.01;102134.59;4950727;29;20033;-71
2022/06/13 07:14:38;;;;;;;7.22;2.15;;;;;;;17.17;71.43;102133.38;4951312;29;20034;-72
2022/06/13 07:17:06;;;;;;;6.85;1.65;;;;;;;17.14;71.48;102130.69;4950859;28;20035;-71
2022/06/13 07:19:32;;;;;;;7.03;2.25;;;;;;;17.31;73.29;102128.50;4950559;29;20078;-71
2022/06/13 07:21:58;;;;;;;6.00;1.88;;;;;;;17.59;73.89;102136.13;4949957;29;20047;-71
2022/06/13 07:24:24;;;;;;;8.85;2.25;;;;;;;17.91;72.24;102138.59;4950289;29;20046;-72
2022/06/13 07:26:50;;;;;;;8.95;2.33;;;;;;;18.19;70.92;102139.22;4950318;29;20023;-72
2022/06/13 07:29:18;;;;;;;7.53;2.20;;;;;;;18.45;68.41;102135.34;4950827;29;20078;-71
2022/06/13 07:32:12;;;;;;;14.13;4.63;;;;;;;18.71;66.56;102142.81;4950944;29;20027;-71
2022/06/13 07:34:39;;;;;;;6.90;2.47;;;;;;;18.84;66.83;102146.56;4950885;29;20035;-71
2022/06/13 07:37:08;;;;;;;6.13;1.95;;;;;;;19.18;66.77;102149.81;4950212;28;20034;-72
2022/06/13 07:39:34;;;;;;;9.95;2.40;;;;;;;19.44;65.65;102146.75;4949992;29;20034;-71
2022/06/13 07:42:00;;;;;;;6.38;2.10;;;;;;;19.36;64.64;102145.72;4950552;29;20035;-71
2022/06/13 07:44:47;;;;;;;8.82;2.63;;;;;;;19.20;64.80;102144.59;4950920;29;20086;-71
2022/06/13 07:47:19;;;;;;;8.27;2.67;;;;;;;18.92;64.38;102144.09;4950336;29;20046;-71
2022/06/13 07:49:44;;;;;;;7.28;2.42;;;;;;;18.68;65.27;102148.91;4950367;28;20096;-71
2022/06/13 07:52:09;;;;;;;4.70;2.03;;;;;;;18.45;65.14;102154.63;4950594;29;20015;-71
2022/06/13 07:54:35;;;;;;;7.70;2.15;;;;;;;18.57;68.01;102155.69;4950215;29;20031;-71
2022/06/13 07:57:00;;;;;;;5.43;1.75;;;;;;;18.87;68.23;102159.75;4950315;29;20380;-71
2022/06/13 07:59:29;;;;;;;8.93;1.85;;;;;;;19.17;64.43;102158.56;4950297;29;20023;-71
2022/06/13 08:01:55;;;;;;;6.93;2.55;;;;;;;19.46;65.05;102169.53;4950413;29;20028;-71
2022/06/13 08:04:20;;;;;;;5.38;2.20;;;;;;;19.70;61.79;102169.00;4949969;29;20031;-71
2022/06/13 08:06:45;;;;;;;5.43;2.00;;;;;;;19.96;63.80;102178.16;4950047;29;20482;-72
2022/06/13 08:09:11;;;;;;;7.50;1.90;;;;;;;20.24;62.30;102173.28;4950657;29;20030;-72
2022/06/13 08:11:43;;;;;;;5.50;2.45;;;;;;;20.44;61.12;102183.16;4950392;29;20023;-72
2022/06/13 08:14:08;;;;;;;4.80;1.73;;;;;;;20.60;60.68;102184.22;4950673;29;20027;-72
2022/06/13 08:16:36;;;;;;;5.30;1.67;;;;;;;20.71;59.32;102187.88;4950576;29;20027;-72
2022/06/13 08:19:03;;;;;;;7.32;1.98;;;;;;;20.70;58.48;102179.97;4949913;29;20090;-71
2022/06/13 08:21:29;;;;;;;6.63;2.00;;;;;;;20.59;57.72;102188.63;4950071;29;20062;-72
2022/06/13 08:23:55;;;;;;;6.28;2.10;;;;;;;20.55;59.92;102186.81;4950233;29;20051;-72
2022/06/13 08:26:20;;;;;;;6.32;2.22;;;;;;;20.72;58.68;102183.50;4949912;29;20049;-71
2022/06/13 08:28:45;;;;;;;5.40;2.38;;;;;;;20.79;57.64;102181.81;4949970;29;20030;-71
2022/06/13 08:31:15;;;;;;;8.77;1.77;;;;;;;20.66;55.85;102181.66;4950055;29;20508;-71
2022/06/13 08:33:41;;;;;;;6.10;2.58;;;;;;;20.56;58.76;102182.44;4949561;29;20136;-71
2022/06/13 08:36:07;;;;;;;4.22;1.95;;;;;;;20.46;57.35;102191.97;4950238;29;20352;-71
2022/06/13 08:38:32;;;;;;;5.20;1.60;;;;;;;20.27;58.70;102197.03;4950490;29;20031;-71
2022/06/13 08:41:01;;;;;;;7.20;2.10;;;;;;;20.08;58.95;102202.03;4950171;29;20035;-71
2022/06/13 08:43:52;;;;;;;6.10;2.47;;;;;;;19.91;59.55;102197.38;4949715;29;20166;-71
2022/06/13 08:46:31;;;;;;;7.15;1.92;;;;;;;19.78;59.59;102198.06;4950084;28;20095;-71
2022/06/13 08:49:38;;;;;;;5.57;1.70;;;;;;;19.72;58.70;102204.09;4967440;28;20027;-71
2022/06/13 08:52:09;;;;;;;7.38;2.15;;;;;;;19.99;60.53;102205.38;4953505;29;20023;-71
2022/06/13 08:54:34;;;;;;;;;;;;;;;20.34;59.95;102204.13;4953924;29;20055;-71
2022/06/13 08:57:05;;;;;;;8.07;2.22;;;;;;;20.74;59.70;102203.69;4936309;29;20371;-72
2022/06/13 08:59:34;;;;;;;;;;;;;;;21.03;57.37;102207.53;4953900;29;20056;-71
2022/06/13 09:02:19;;;;;;;6.30;1.73;;;;;;;21.45;57.47;102199.13;4953337;29;20286;-72
2022/06/13 09:05:02;;;;;;;8.30;1.90;;;;;;;21.79;55.93;102201.09;4952869;29;20039;-71
2022/06/13 09:07:37;;;;;;;6.13;2.05;;;;;;;21.57;55.37;102206.22;4953443;29;20038;-71
2022/06/13 09:10:09;;;;;;;5.65;1.50;;;;;;;21.24;55.52;102208.63;4952698;29;20292;-71
2022/06/13 09:12:47;;;;;;;3.33;1.45;;;;;;;20.82;55.07;102216.97;4951658;29;20020;-71
2022/06/13 09:15:21;;;;;;;5.70;2.95;;;;;;;20.34;54.92;102225.19;4953306;29;20031;-71
2022/06/13 09:17:52;;;;;;;7.03;2.30;;;;;;;20.06;56.69;102223.94;4952974;29;20027;-71
2022/06/13 09:20:19;;;;;;;;;;;;;;;19.72;56.99;102232.13;4953652;29;20408;-72
2022/06/13 09:23:14;;;;;;;4.57;1.42;;;;;;;19.46;58.63;102229.97;4952519;29;19918;-71
2022/06/13 09:25:55;;;;;;;4.68;1.52;;;;;;;19.25;58.98;102239.28;4952961;29;20035;-71
2022/06/13 09:28:31;;;;;;;5.72;1.48;;;;;;;19.15;60.66;102238.22;4935013;29;20027;-71
2022/06/13 09:31:04;;;;;;;6.95;1.52;;;;;;;19.00;60.31;102230.88;4953260;29;20034;-71
2022/06/13 09:33:33;;;;;;;3.60;1.58;;;;;;;19.24;64.38;102232.22;4952880;29;20050;-72
2022/06/13 09:36:05;;;;;;;6.20;1.30;;;;;;;19.63;63.60;102236.41;4952714;29;20086;-72
2022/06/13 09:38:35;;;;;;;6.30;0.98;;;;;;;19.84;60.65;102242.84;4953300;29;20290;-72
2022/06/13 09:41:00;;;;;;;7.93;1.52;;;;;;;20.12;63.73;102238.03;4952166;29;20407;-71
2022/06/13 09:43:46;;;;;;;5.15;1.90;;;;;;;20.38;60.92;102248.03;4952519;29;20106;-72
2022/06/13 09:46:32;;;;;;;5.22;1.13;;;;;;;20.44;58.00;102246.34;4952657;29;20038;-72
2022/06/13 09:49:16;;;;;;;5.07;1.73;;;;;;;20.43;58.09;102258.63;4952648;29;20027;-72
2022/06/13 09:51:59;;;;;;;3.45;1.25;;;;;;;20.30;58.54;102260.22;4952258;29;20062;-72
2022/06/13 09:54:54;;;;;;;5.88;1.40;;;;;;;20.06;59.15;102260.75;4952713;29;20034;-72
2022/06/13 09:57:41;;;;;;;6.13;1.67;;;;;;;19.94;58.76;102256.13;4949856;28;20043;-71
2022/06/13 10:00:26;;;;;;;3.80;1.20;;;;;;;20.02;58.24;102251.91;4951933;28;20118;-72
2022/06/13 10:03:06;;;;;;;4.38;1.40;;;;;;;20.43;60.33;102253.38;4952289;29;20038;-71
2022/06/13 10:05:36;;;;;;;5.18;1.17;;;;;;;20.72;56.21;102257.22;4951989;29;20054;-71
2022/06/13 10:08:20;;;;;;;3.70;1.00;;;;;;;20.75;54.24;102252.88;4951911;29;20026;-71
2022/06/13 10:11:01;;;;;;;5.07;1.10;;;;;;;20.58;53.49;102268.47;4952144;29;20031;-71
2022/06/13 10:13:50;;;;;;;3.88;1.20;;;;;;;20.37;56.16;102261.16;4952255;29;20107;-72
2022/06/13 10:16:32;;;;;;;4.63;0.90;;;;;;;20.10;56.10;102260.81;4941879;29;20071;-71
2022/06/13 10:18:57;;;;;;;;;;;;;;;19.80;56.36;102264.72;4952368;29;20023;-71
2022/06/13 10:21:22;;;;;;;4.78;1.20;;;;;;;19.69;56.22;102261.91;4951715;29;20379;-71
2022/06/13 10:24:17;;;;;;;3.67;1.00;;;;;;;19.79;58.07;102262.94;4951839;29;20045;-71
2022/06/13 10:27:01;;;;;;;6.00;1.50;;;;;;;19.91;57.64;102263.13;4941191;29;20378;-71
2022/06/13 10:29:46;;;;;;;4.45;1.48;;;;;;;20.26;58.11;102267.19;4951858;29;20154;-71
2022/06/13 10:32:36;;;;;;;6.00;1.00;;;;;;;20.51;55.44;102263.97;4951372;29;20022;-71
2022/06/13 10:35:26;;;;;;;3.83;1.33;;;;;;;20.50;55.28;102273.66;4951546;29;20031;-71
2022/06/13 10:38:16;;;;;;;2.60;1.00;;;;;;;20.23;54.09;102261.88;4951615;28;20039;-72
2022/06/13 10:40:41;;;;;;;4.65;1.10;;;;;;;19.88;54.57;102273.59;4951454;29;20399;-71
2022/06/13 10:43:07;;;;;;;3.90;1.20;;;;;;;19.59;55.12;102281.88;4951274;29;20114;-71
2022/06/13 10:45:35;;;;;;;4.70;1.23;;;;;;;19.29;56.12;102275.22;4951554;29;20399;-71
2022/06/13 10:48:21;;;;;;;4.60;1.52;;;;;;;19.18;57.20;102281.19;4951557;29;20030;-72
2022/06/13 10:50:54;;;;;;;5.55;1.40;;;;;;;19.34;58.29;102283.22;4934050;29;20311;-71
2022/06/13 10:53:43;;;;;;;4.93;1.30;;;;;;;19.71;59.37;102280.34;4950862;29;20062;-72
2022/06/13 10:56:14;;;;;;;4.20;1.10;;;;;;;20.14;61.62;102274.91;4951253;29;20023;-71
2022/06/13 10:58:48;;;;;;;3.63;0.82;;;;;;;20.58;58.36;102278.13;4951337;29;20390;-72
2022/06/13 11:01:20;;;;;;;9.00;1.50;;;;;;;20.76;55.38;102264.28;4951271;29;20093;-71
2022/06/13 11:03:57;;;;;;;4.03;1.05;;;;;;;20.75;55.05;102267.78;4950671;29;20509;-71
2022/06/13 11:06:31;;;;;;;2.95;0.93;;;;;;;20.76;55.47;102277.44;4951184;29;20031;-72
2022/06/13 11:09:17;;;;;;;5.35;1.30;;;;;;;20.69;55.12;102278.25;4950826;29;20034;-72
2022/06/13 11:11:42;;;;;;;4.93;1.58;;;;;;;20.34;54.65;102269.03;4950315;28;20031;-72
2022/06/13 11:22:37;;;;;;;5.28;1.15;;;;;;;20.08;55.24;102280.94;4951018;29;20038;-71
2022/06/13 11:23:03;;;;;;;2.67;1.00;;;;;;;19.96;56.77;102275.47;4950813;29;20397;-72
2022/06/13 11:25:34;;;;;;;2.30;0.85;;;;;;;20.33;55.92;102269.91;4950652;29;20023;-71
2022/06/13 11:28:12;;;;;;;1.92;1.10;;;;;;;20.73;54.49;102267.78;4950684;29;20431;-71
2022/06/13 11:30:49;;;;;;;2.83;0.90;;;;;;;20.96;52.46;102271.56;4950505;29;20063;-72
2022/06/13 11:33:37;;;;;;;2.75;0.80;;;;;;;21.11;53.31;102271.75;4950246;29;20159;-72
2022/06/13 11:36:14;;;;;;;2.95;0.90;;;;;;;21.11;51.16;102266.47;4950764;29;20089;-71
2022/06/13 11:39:08;;;;;;;4.38;1.13;;;;;;;20.97;51.71;102275.97;4950344;29;20123;-72
2022/06/13 11:41:41;;;;;;;3.80;1.30;;;;;;;20.75;49.66;102278.31;4945910;29;20043;-72
2022/06/13 11:44:10;;;;;;;2.67;1.17;;;;;;;20.61;51.72;102276.41;4950035;29;20102;-71
2022/06/13 11:46:54;;;;;;;3.35;1.05;;;;;;;20.45;50.45;102277.06;4950344;29;20145;-72
2022/06/13 11:49:19;;;;;;;2.05;0.98;;;;;;;20.30;51.89;102270.72;4950419;29;20027;-72
2022/06/13 11:51:47;;;;;;;3.65;1.20;;;;;;;20.10;53.56;102281.84;4950620;29;20031;-72
2022/06/13 11:54:21;;;;;;;3.40;1.55;;;;;;;19.95;54.21;102273.72;4950447;29;20035;-71
2022/06/13 11:56:47;;;;;;;2.35;0.88;;;;;;;20.11;56.57;102270.47;4932554;29;20079;-71
2022/06/13 11:59:16;;;;;;;2.30;0.98;;;;;;;20.48;57.12;102279.75;4950550;29;20429;-71
2022/06/13 12:01:42;;;;;;;3.28;0.82;;;;;;;20.83;55.31;102274.03;4950528;29;20279;-71
2022/06/13 12:04:07;;;;;;;3.28;0.95;;;;;;;21.22;55.17;102268.34;4949936;29;20039;-71
2022/06/13 12:06:58;;;;;;;4.13;1.10;;;;;;;21.55;54.89;102268.63;4950686;29;20078;-71